createdAt,value
2024-01-21T00:00:44.867Z,102433.69
2024-01-21T00:03:12.067Z,102437.19
2024-01-21T00:05:38.885Z,102435.44
2024-01-21T00:08:05.935Z,102421.50
2024-01-21T00:10:32.411Z,102418.84
2024-01-21T00:12:58.923Z,102394.44
2024-01-21T00:15:25.390Z,102404.91
2024-01-21T00:17:51.922Z,102404.06
2024-01-21T00:20:18.981Z,102404.06
2024-01-21T00:22:45.727Z,102403.16
2024-01-21T00:25:12.193Z,102401.44
2024-01-21T00:27:38.986Z,102397.06
2024-01-21T00:30:06.306Z,102396.22
2024-01-21T00:32:32.831Z,102399.72
2024-01-21T00:34:59.381Z,102392.72
2024-01-21T00:37:25.837Z,102391.00
2024-01-21T00:39:52.424Z,102380.53
2024-01-21T00:42:19.455Z,102388.38
2024-01-21T00:44:45.888Z,102381.41
2024-01-21T00:47:12.595Z,102367.47
2024-01-21T00:49:42.565Z,102371.81
2024-01-21T00:52:09.763Z,102374.44
2024-01-21T00:54:36.884Z,102369.22
2024-01-21T00:57:03.702Z,102366.63
2024-01-21T00:59:30.293Z,102357.00
2024-01-21T01:01:56.938Z,102347.44
2024-01-21T01:04:23.565Z,102344.84
2024-01-21T01:06:50.876Z,102351.78
2024-01-21T01:09:17.583Z,102354.41
2024-01-21T01:11:44.033Z,102349.16
2024-01-21T01:14:10.503Z,102345.69
2024-01-21T01:16:40.805Z,102326.50
2024-01-21T01:19:10.699Z,102323.91
2024-01-21T01:21:37.514Z,102303.00
2024-01-21T01:24:04.525Z,102302.16
2024-01-21T01:26:31.068Z,102290.81
2024-01-21T01:28:57.638Z,102275.97
2024-01-21T01:31:24.105Z,102261.19
2024-01-21T01:33:51.801Z,102254.22
2024-01-21T01:36:18.540Z,102245.50
2024-01-21T01:38:45.576Z,102238.53
2024-01-21T01:41:12.023Z,102237.66
2024-01-21T01:43:38.528Z,102227.19
2024-01-21T01:46:05.845Z,102225.44
2024-01-21T01:48:33.309Z,102223.69
2024-01-21T01:51:01.865Z,102222.81
2024-01-21T01:53:30.345Z,102223.69
2024-01-21T01:55:57.292Z,102217.59
2024-01-21T01:58:27.695Z,102217.56
2024-01-21T02:00:54.800Z,102216.66
2024-01-21T02:03:24.523Z,102215.78
2024-01-21T02:05:51.307Z,102209.69
2024-01-21T02:08:18.088Z,102215.78
2024-01-21T02:10:44.942Z,102221.03
2024-01-21T02:13:11.682Z,102227.97
2024-01-21T02:15:38.303Z,102216.66
2024-01-21T02:18:05.277Z,102212.28
2024-01-21T02:20:32.120Z,102207.94
2024-01-21T02:22:59.199Z,102196.63
2024-01-21T02:25:25.736Z,102197.41
2024-01-21T02:27:52.465Z,102191.28
2024-01-21T02:30:19.050Z,102187.81
2024-01-21T02:32:45.635Z,102184.31
2024-01-21T02:35:12.063Z,102167.72
2024-01-21T02:37:38.575Z,102166.84
2024-01-21T02:40:06.384Z,102162.44
2024-01-21T02:42:32.945Z,102156.31
2024-01-21T02:45:00.383Z,102138.88
2024-01-21T02:47:27.042Z,102134.50
2024-01-21T02:49:53.741Z,102120.53
2024-01-21T02:52:20.341Z,102115.31
2024-01-21T02:54:47.009Z,102110.06
2024-01-21T02:57:14.059Z,102104.84
2024-01-21T02:59:40.590Z,102110.06
2024-01-21T03:02:07.118Z,102095.19
2024-01-21T03:04:33.628Z,102093.47
2024-01-21T03:07:00.072Z,102076.06
2024-01-21T03:09:26.701Z,102080.44
2024-01-21T03:11:53.390Z,102061.22
2024-01-21T03:14:20.004Z,102060.31
2024-01-21T03:16:46.466Z,102060.34
2024-01-21T03:19:12.944Z,102062.97
2024-01-21T03:21:39.686Z,102065.56
2024-01-21T03:24:12.134Z,102063.81
2024-01-21T03:26:40.359Z,102055.91
2024-01-21T03:29:06.911Z,102062.06
2024-01-21T03:31:33.826Z,102057.69
2024-01-21T03:34:00.555Z,102045.44
2024-01-21T03:36:27.351Z,102047.19
2024-01-21T03:38:54.067Z,102044.50
2024-01-21T03:41:20.989Z,102043.66
2024-01-21T03:43:47.554Z,102047.97
2024-01-21T03:46:14.260Z,102041.88
2024-01-21T03:48:40.959Z,102052.34
2024-01-21T03:51:10.910Z,102028.81
2024-01-21T03:53:40.426Z,102026.16
2024-01-21T03:56:07.816Z,102028.00
2024-01-21T03:58:34.341Z,102028.91
2024-01-21T04:01:02.923Z,102027.13
2024-01-21T04:03:29.587Z,102013.22
2024-01-21T04:05:56.358Z,101999.28
2024-01-21T04:08:22.909Z,102009.78
2024-01-21T04:10:51.791Z,102002.81
2024-01-21T04:13:18.605Z,101993.25
2024-01-21T04:15:45.175Z,101987.13
2024-01-21T04:18:11.947Z,101987.16
2024-01-21T04:20:38.554Z,101988.88
2024-01-21T04:23:05.067Z,101986.22
2024-01-21T04:25:31.772Z,101982.78
2024-01-21T04:27:58.270Z,101984.53
2024-01-21T04:30:25.012Z,101978.38
2024-01-21T04:32:51.883Z,101977.50
2024-01-21T04:35:18.475Z,101968.75
2024-01-21T04:37:44.956Z,101957.38
2024-01-21T04:40:12.236Z,101955.59
2024-01-21T04:42:38.742Z,101932.91
2024-01-21T04:45:08.181Z,101943.31
2024-01-21T04:47:34.775Z,101918.00
2024-01-21T04:50:01.306Z,101918.78
2024-01-21T04:52:28.855Z,101929.25
2024-01-21T04:54:55.396Z,101926.59
2024-01-21T04:57:21.841Z,101917.84
2024-01-21T04:59:48.312Z,101907.38
2024-01-21T05:02:14.808Z,101931.78
2024-01-21T05:04:41.569Z,101930.94
2024-01-21T05:07:08.111Z,101929.16
2024-01-21T05:09:34.642Z,101927.41
2024-01-21T05:12:01.397Z,101918.69
2024-01-21T05:14:27.827Z,101916.09
2024-01-21T05:16:54.360Z,101927.34
2024-01-21T05:19:21.881Z,101915.97
2024-01-21T05:21:48.481Z,101916.00
2024-01-21T05:24:15.151Z,101896.81
2024-01-21T05:26:47.776Z,101907.28
2024-01-21T05:29:14.524Z,101898.56
2024-01-21T05:31:41.046Z,101886.34
2024-01-21T05:34:14.986Z,101875.88
2024-01-21T05:36:45.217Z,101861.94
2024-01-21T05:39:12.025Z,101848.88
2024-01-21T05:41:38.529Z,101854.03
2024-01-21T05:44:05.426Z,101837.47
2024-01-21T05:46:31.949Z,101831.38
2024-01-21T05:48:58.615Z,101848.81
2024-01-21T05:51:25.243Z,101866.25
2024-01-21T05:53:52.243Z,101863.63
2024-01-21T05:56:19.765Z,101861.84
2024-01-21T05:58:46.426Z,101858.41
2024-01-21T06:01:13.183Z,101857.56
2024-01-21T06:03:40.065Z,101860.13
2024-01-21T06:06:06.685Z,101845.28
2024-01-21T06:08:33.124Z,101837.41
2024-01-21T06:10:59.609Z,101872.31
2024-01-21T06:13:26.372Z,101886.22
2024-01-21T06:15:53.359Z,101878.31
2024-01-21T06:18:20.290Z,101880.84
2024-01-21T06:20:47.122Z,101898.25
2024-01-21T06:23:13.713Z,101872.03
2024-01-21T06:25:40.473Z,101872.84
2024-01-21T06:28:06.945Z,101882.38
2024-01-21T06:30:33.416Z,101883.97
2024-01-21T06:33:03.200Z,101880.34
2024-01-21T06:35:34.144Z,101868.06
2024-01-21T06:38:00.685Z,101861.03
2024-01-21T06:40:27.523Z,101888.91
2024-01-21T06:42:54.137Z,101889.78
2024-01-21T06:45:20.724Z,101878.31
2024-01-21T06:47:47.361Z,101886.19
2024-01-21T06:50:14.595Z,101880.00
2024-01-21T06:52:41.250Z,101888.59
2024-01-21T06:55:08.219Z,101850.19
2024-01-21T06:57:34.859Z,101850.94
2024-01-21T07:00:02.401Z,101853.53
2024-01-21T07:02:28.932Z,101810.63
2024-01-21T07:04:55.453Z,101796.66
2024-01-21T07:07:22.260Z,101806.34
2024-01-21T07:09:48.897Z,101803.69
2024-01-21T07:12:15.795Z,101799.19
2024-01-21T07:14:42.599Z,101797.47
2024-01-21T07:17:09.132Z,101798.38
2024-01-21T07:19:35.860Z,101781.78
2024-01-21T07:22:03.781Z,101768.69
2024-01-21T07:24:30.336Z,101801.84
2024-01-21T07:26:56.812Z,101811.53
2024-01-21T07:29:23.633Z,101829.84
2024-01-21T07:31:50.101Z,101835.03
2024-01-21T07:34:16.889Z,101826.31
2024-01-21T07:36:43.726Z,101834.16
2024-01-21T07:39:10.722Z,101849.94
2024-01-21T07:41:37.385Z,101861.28
2024-01-21T07:44:04.456Z,101861.28
2024-01-21T07:46:31.115Z,101860.38
2024-01-21T07:48:57.942Z,101861.16
2024-01-21T07:51:24.707Z,101857.69
2024-01-21T07:53:52.032Z,101864.66
2024-01-21T07:56:18.447Z,101867.28
2024-01-21T07:58:44.979Z,101875.09
2024-01-21T08:01:13.017Z,101869.78
2024-01-21T08:03:40.510Z,101868.88
2024-01-21T08:06:10.264Z,101884.50
2024-01-21T08:08:37.112Z,101883.69
2024-01-21T08:11:04.227Z,101885.41
2024-01-21T08:13:38.822Z,101889.72
2024-01-21T08:16:11.491Z,101886.16
2024-01-21T08:18:38.489Z,101887.78
2024-01-21T08:21:05.626Z,101891.25
2024-01-21T08:23:32.678Z,101878.88
2024-01-21T08:25:59.356Z,101891.13
2024-01-21T08:28:26.071Z,101878.81
2024-01-21T08:30:52.581Z,101884.91
2024-01-21T08:33:21.152Z,101894.50
2024-01-21T08:35:47.752Z,101907.44
2024-01-21T08:38:14.252Z,101891.63
2024-01-21T08:40:40.759Z,101909.97
2024-01-21T08:43:07.331Z,101887.22
2024-01-21T08:45:34.059Z,101893.28
2024-01-21T08:48:00.644Z,101892.41
2024-01-21T08:50:27.147Z,101896.66
2024-01-21T08:52:53.624Z,101894.03
2024-01-21T08:55:20.190Z,101889.59
2024-01-21T08:57:46.888Z,101886.03
2024-01-21T09:00:16.345Z,101884.19
2024-01-21T09:02:42.934Z,101901.59
2024-01-21T09:05:09.658Z,101918.06
2024-01-21T09:07:36.470Z,101920.63
2024-01-21T09:10:05.305Z,101925.94
2024-01-21T09:12:32.383Z,101929.47
2024-01-21T09:14:58.900Z,101940.00
2024-01-21T09:17:25.490Z,101929.44
2024-01-21T09:19:52.093Z,101925.03
2024-01-21T09:22:18.640Z,101909.19
2024-01-21T09:24:45.196Z,101893.38
2024-01-21T09:27:11.811Z,101901.25
2024-01-21T09:29:38.509Z,101912.47
2024-01-21T09:32:10.934Z,101911.59
2024-01-21T09:34:40.804Z,101913.38
2024-01-21T09:37:07.751Z,101912.41
2024-01-21T09:39:34.213Z,101922.84
2024-01-21T09:42:00.796Z,101917.50
2024-01-21T09:44:29.501Z,101934.13
2024-01-21T09:46:58.519Z,101934.06
2024-01-21T09:49:26.382Z,101936.63
2024-01-21T09:51:54.682Z,101922.63
2024-01-21T09:54:23.287Z,101926.97
2024-01-21T09:56:50.161Z,101921.63
2024-01-21T09:59:22.728Z,101915.47
2024-01-21T10:01:52.409Z,101921.41
2024-01-21T10:04:21.524Z,101925.81
2024-01-21T10:06:49.118Z,101932.78
2024-01-21T10:09:23.302Z,101929.31
2024-01-21T10:11:54.301Z,101919.56
2024-01-21T10:14:21.752Z,101929.16
2024-01-21T10:16:49.173Z,101930.00
2024-01-21T10:19:16.080Z,101930.88
2024-01-21T10:21:43.411Z,101919.41
2024-01-21T10:24:11.538Z,101909.69
2024-01-21T10:26:38.508Z,101913.94
2024-01-21T10:29:05.080Z,101917.44
2024-01-21T10:31:34.865Z,101911.28
2024-01-21T10:34:03.790Z,101912.16
2024-01-21T10:36:35.119Z,101922.59
2024-01-21T10:39:08.059Z,101913.78
2024-01-21T10:41:35.827Z,101911.09
2024-01-21T10:44:04.175Z,101907.56
2024-01-21T10:46:36.021Z,101897.09
2024-01-21T10:49:04.582Z,101905.81
2024-01-21T10:51:32.301Z,101897.91
2024-01-21T10:54:01.707Z,101883.84
2024-01-21T10:56:28.346Z,101892.53
2024-01-21T10:58:55.599Z,101890.75
2024-01-21T11:01:23.854Z,101886.34
2024-01-21T11:03:54.123Z,101887.16
2024-01-21T11:06:21.209Z,101880.13
2024-01-21T11:08:51.116Z,101877.50
2024-01-21T11:11:22.325Z,101878.34
2024-01-21T11:13:53.441Z,101879.97
2024-01-21T11:16:31.720Z,101888.81
2024-01-21T11:18:59.764Z,101890.59
2024-01-21T11:21:28.293Z,101885.25
2024-01-21T11:24:14.589Z,101885.22
2024-01-21T11:26:48.367Z,101882.63
2024-01-21T11:29:34.242Z,101871.94
2024-01-21T11:32:07.045Z,101876.19
2024-01-21T11:34:39.384Z,101873.59
2024-01-21T11:37:11.159Z,101878.78
2024-01-21T11:39:38.559Z,101875.28
2024-01-21T11:42:06.397Z,101883.03
2024-01-21T11:44:34.207Z,101887.41
2024-01-21T11:47:05.533Z,101892.63
2024-01-21T11:49:34.098Z,101896.13
2024-01-21T11:52:01.920Z,101890.78
2024-01-21T11:54:29.589Z,101903.00
2024-01-21T11:56:56.467Z,101905.53
2024-01-21T11:59:24.446Z,101909.78
2024-01-21T12:01:52.191Z,101894.00
2024-01-21T12:04:18.992Z,101895.63
2024-01-21T12:06:54.169Z,101891.25
2024-01-21T12:09:21.116Z,101882.34
2024-01-21T12:11:58.970Z,101881.34
2024-01-21T12:14:28.292Z,101882.19
2024-01-21T12:17:02.453Z,101877.75
2024-01-21T12:19:29.620Z,101877.66
2024-01-21T12:22:05.318Z,101882.06
2024-01-21T12:24:31.995Z,101881.94
2024-01-21T12:26:58.612Z,101878.38
2024-01-21T12:29:26.176Z,101888.06
2024-01-21T12:31:53.675Z,101879.31
2024-01-21T12:34:21.260Z,101875.75
2024-01-21T12:36:51.031Z,101874.00
2024-01-21T12:39:17.999Z,101873.91
2024-01-21T12:41:44.642Z,101866.03
2024-01-21T12:44:11.270Z,101862.47
2024-01-21T12:46:46.933Z,101862.34
2024-01-21T12:49:13.559Z,101863.06
2024-01-21T12:51:40.687Z,101863.94
2024-01-21T12:54:07.161Z,101850.72
2024-01-21T12:56:36.585Z,101848.06
2024-01-21T12:59:04.823Z,101847.16
2024-01-21T13:01:31.764Z,101863.69
2024-01-21T13:03:58.504Z,101861.00
2024-01-21T13:06:25.598Z,101856.50
2024-01-21T13:08:52.178Z,101845.84
2024-01-21T13:11:19.068Z,101845.94
2024-01-21T13:13:45.530Z,101844.13
2024-01-21T13:16:12.329Z,101844.06
2024-01-21T13:18:39.594Z,101827.34
2024-01-21T13:21:08.506Z,101830.84
2024-01-21T13:23:35.571Z,101832.53
2024-01-21T13:26:02.402Z,101828.06
2024-01-21T13:28:29.602Z,101820.13
2024-01-21T13:30:57.341Z,101829.66
2024-01-21T13:33:26.445Z,101822.59
2024-01-21T13:35:54.691Z,101819.03
2024-01-21T13:38:30.271Z,101829.56
2024-01-21T13:41:04.978Z,101826.06
2024-01-21T13:43:40.560Z,101826.06
2024-01-21T13:46:09.219Z,101816.34
2024-01-21T13:48:35.787Z,101813.53
2024-01-21T13:51:05.692Z,101819.56
2024-01-21T13:53:32.343Z,101816.94
2024-01-21T13:55:58.840Z,101817.88
2024-01-21T13:58:25.292Z,101805.53
2024-01-21T14:00:51.892Z,101808.16
2024-01-21T14:03:18.935Z,101805.47
2024-01-21T14:05:45.749Z,101815.09
2024-01-21T14:08:12.783Z,101811.63
2024-01-21T14:10:39.286Z,101805.44
2024-01-21T14:13:07.162Z,101800.06
2024-01-21T14:15:34.049Z,101817.56
2024-01-21T14:18:03.292Z,101817.53
2024-01-21T14:20:29.725Z,101812.22
2024-01-21T14:22:56.247Z,101827.94
2024-01-21T14:25:33.347Z,101829.66
2024-01-21T14:28:00.125Z,101820.84
2024-01-21T14:30:31.003Z,101813.69
2024-01-21T14:32:58.839Z,101817.19
2024-01-21T14:35:27.563Z,101818.88
2024-01-21T14:37:55.348Z,101809.19
2024-01-21T14:40:24.580Z,101797.84
2024-01-21T14:42:51.473Z,101791.63
2024-01-21T14:45:18.108Z,101801.19
2024-01-21T14:47:44.823Z,101787.09
2024-01-21T14:50:11.565Z,101790.66
2024-01-21T14:52:38.492Z,101783.53
2024-01-21T14:55:05.502Z,101787.91
2024-01-21T14:57:32.439Z,101771.19
2024-01-21T15:00:09.005Z,101785.19
2024-01-21T15:02:39.066Z,101789.53
2024-01-21T15:07:48.924Z,101764.84
2024-01-21T15:10:30.153Z,101756.06
2024-01-21T15:12:56.827Z,101700.44
2024-01-21T15:15:30.260Z,101674.06
2024-01-21T15:17:56.934Z,101661.81
2024-01-21T15:20:25.183Z,101664.44
2024-01-21T15:22:53.095Z,101679.41
2024-01-21T15:25:19.797Z,101722.38
2024-01-21T15:27:46.449Z,101742.50
2024-01-21T15:30:13.615Z,101761.81
2024-01-21T15:32:40.165Z,101760.94
2024-01-21T15:35:06.977Z,101769.72
2024-01-21T15:37:33.653Z,101766.25
2024-01-21T15:40:00.649Z,101774.03
2024-01-21T15:42:27.351Z,101776.56
2024-01-21T15:44:53.989Z,101763.28
2024-01-21T15:47:20.440Z,101740.53
2024-01-21T15:49:47.432Z,101722.19
2024-01-21T15:52:14.206Z,101723.09
2024-01-21T15:54:40.705Z,101733.63
2024-01-21T15:57:07.249Z,101729.19
2024-01-21T15:59:33.719Z,101721.19
2024-01-21T16:02:00.613Z,101733.53
2024-01-21T16:04:27.366Z,101729.06
2024-01-21T16:06:53.931Z,101725.47
2024-01-21T16:09:21.072Z,101714.91
2024-01-21T16:11:47.744Z,101711.34
2024-01-21T16:14:14.392Z,101707.91
2024-01-21T16:16:41.079Z,101710.50
2024-01-21T16:19:07.860Z,101702.47
2024-01-21T16:21:36.681Z,101703.41
2024-01-21T16:24:03.340Z,101682.34
2024-01-21T16:26:30.273Z,101688.47
2024-01-21T16:28:56.773Z,101678.00
2024-01-21T16:31:23.432Z,101689.41
2024-01-21T16:33:50.409Z,101711.31
2024-01-21T16:36:16.972Z,101734.13
2024-01-21T16:38:43.533Z,101726.06
2024-01-21T16:41:11.478Z,101712.78
2024-01-21T16:43:38.098Z,101710.06
2024-01-21T16:46:04.898Z,101709.22
2024-01-21T16:48:31.613Z,101725.97
2024-01-21T16:51:03.233Z,101721.47
2024-01-21T16:53:30.647Z,101712.78
2024-01-21T16:55:58.863Z,101707.50
2024-01-21T16:58:29.586Z,101716.38
2024-01-21T17:00:58.053Z,101691.78
2024-01-21T17:03:26.472Z,101683.75
2024-01-21T17:05:53.352Z,101675.88
2024-01-21T17:08:23.114Z,101680.41
2024-01-21T17:10:59.612Z,101687.63
2024-01-21T17:13:26.163Z,101693.75
2024-01-21T17:15:53.185Z,101698.13
2024-01-21T17:18:19.773Z,101684.16
2024-01-21T17:23:30.328Z,101680.63
2024-01-21T17:26:02.354Z,101692.03
2024-01-21T17:28:29.044Z,101683.31
2024-01-21T17:30:56.801Z,101685.94
2024-01-21T17:33:26.523Z,101699.94
2024-01-21T17:35:53.552Z,101681.59
2024-01-21T17:38:20.276Z,101678.16
2024-01-21T17:40:46.964Z,101661.31
2024-01-21T17:43:13.579Z,101664.19
2024-01-21T17:45:40.231Z,101658.91
2024-01-21T17:48:08.289Z,101650.66
2024-01-21T17:50:35.187Z,101650.13
2024-01-21T17:53:01.703Z,101652.75
2024-01-21T17:55:28.234Z,101657.28
2024-01-21T17:57:54.867Z,101653.91
2024-01-21T18:00:21.581Z,101658.31
2024-01-21T18:02:48.391Z,101647.78
2024-01-21T18:05:15.070Z,101661.81
2024-01-21T18:07:41.739Z,101641.69
2024-01-21T18:10:08.720Z,101617.97
2024-01-21T18:12:36.436Z,101615.44
2024-01-21T18:15:03.446Z,101619.84
2024-01-21T18:17:31.496Z,101628.66
2024-01-21T18:19:58.251Z,101610.31
2024-01-21T18:22:24.790Z,101628.75
2024-01-21T18:24:53.988Z,101649.00
2024-01-21T18:27:20.870Z,101630.44
2024-01-21T18:29:47.634Z,101624.50
2024-01-21T18:32:14.574Z,101613.97
2024-01-21T18:34:41.983Z,101606.81
2024-01-21T18:37:09.045Z,101605.22
2024-01-21T18:39:35.721Z,101594.69
2024-01-21T18:42:02.338Z,101601.50
2024-01-21T18:44:29.021Z,101591.69
2024-01-21T18:46:55.644Z,101591.66
2024-01-21T18:49:22.512Z,101584.41
2024-01-21T18:51:56.869Z,101573.88
2024-01-21T18:54:28.947Z,101574.72
2024-01-21T18:56:55.480Z,101556.34
2024-01-21T18:59:22.009Z,101553.44
2024-01-21T19:01:48.642Z,101555.19
2024-01-21T19:04:15.460Z,101539.31
2024-01-21T19:06:42.055Z,101548.09
2024-01-21T19:09:15.538Z,101544.47
2024-01-21T19:11:42.206Z,101533.97
2024-01-21T19:14:15.013Z,101533.00
2024-01-21T19:16:41.755Z,101520.69
2024-01-21T19:19:13.109Z,101506.50
2024-01-21T19:21:41.945Z,101484.53
2024-01-21T19:24:09.729Z,101469.47
2024-01-21T19:26:37.768Z,101473.91
2024-01-21T19:29:05.171Z,101466.91
2024-01-21T19:31:34.476Z,101447.41
2024-01-21T19:34:02.376Z,101453.34
2024-01-21T19:36:29.121Z,101461.09
2024-01-21T19:38:55.936Z,101438.25
2024-01-21T19:41:22.510Z,101434.66
2024-01-21T19:43:49.916Z,101445.88
2024-01-21T19:46:16.743Z,101444.69
2024-01-21T19:48:44.056Z,101434.09
2024-01-21T19:51:11.054Z,101421.69
2024-01-21T19:53:37.635Z,101400.56
2024-01-21T19:56:04.715Z,101397.88
2024-01-21T19:58:31.174Z,101399.44
2024-01-21T20:00:57.702Z,101395.91
2024-01-21T20:03:24.372Z,101394.03
2024-01-21T20:05:51.110Z,101406.25
2024-01-21T20:08:18.757Z,101389.56
2024-01-21T20:10:46.997Z,101398.06
2024-01-21T20:13:14.480Z,101366.41
2024-01-21T20:15:41.054Z,101369.84
2024-01-21T20:18:07.736Z,101355.44
2024-01-21T20:20:35.330Z,101368.47
2024-01-21T20:23:02.060Z,101362.09
2024-01-21T20:25:33.652Z,101324.81
2024-01-21T20:28:00.331Z,101330.94
2024-01-21T20:30:26.862Z,101325.63
2024-01-21T20:32:53.589Z,101327.97
2024-01-21T20:35:20.458Z,101309.63
2024-01-21T20:37:46.906Z,101310.22
2024-01-21T20:40:19.157Z,101288.94
2024-01-21T20:42:45.663Z,101295.94
2024-01-21T20:45:12.492Z,101310.16
2024-01-21T20:47:39.240Z,101315.22
2024-01-21T20:50:07.848Z,101316.06
2024-01-21T20:52:35.073Z,101300.22
2024-01-21T20:55:04.611Z,101300.81
2024-01-21T20:57:32.216Z,101285.81
2024-01-21T21:00:06.360Z,101261.06
2024-01-21T21:02:32.918Z,101282.19
2024-01-21T21:04:59.592Z,101281.03
2024-01-21T21:07:26.234Z,101275.47
2024-01-21T21:09:52.889Z,101254.19
2024-01-21T21:12:19.482Z,101265.38
2024-01-21T21:14:48.669Z,101269.59
2024-01-21T21:17:15.361Z,101272.94
2024-01-21T21:19:42.770Z,101286.66
2024-01-21T21:22:09.583Z,101258.56
2024-01-21T21:24:36.108Z,101254.84
2024-01-21T21:27:02.782Z,101252.91
2024-01-21T21:29:29.355Z,101246.41
2024-01-21T21:31:55.920Z,101252.22
2024-01-21T21:34:22.659Z,101226.59
2024-01-21T21:36:49.164Z,101212.41
2024-01-21T21:39:17.579Z,101210.41
2024-01-21T21:41:44.416Z,101193.00
2024-01-21T21:44:11.744Z,101185.91
2024-01-21T21:46:38.363Z,101169.97
2024-01-21T21:49:05.182Z,101150.53
2024-01-21T21:51:31.758Z,101106.50
2024-01-21T21:53:58.829Z,101085.31
2024-01-21T21:56:25.376Z,101066.00
2024-01-21T21:58:53.207Z,101053.06
2024-01-21T22:01:20.740Z,101080.06
2024-01-21T22:03:48.122Z,101039.91
2024-01-21T22:06:15.347Z,101032.91
2024-01-21T22:08:42.561Z,101046.88
2024-01-21T22:11:10.357Z,101026.69
2024-01-21T22:13:49.057Z,101031.91
2024-01-21T22:16:15.640Z,101038.03
2024-01-21T22:18:42.739Z,101020.84
2024-01-21T22:21:19.542Z,101022.53
2024-01-21T22:23:47.206Z,101002.16
2024-01-21T22:26:13.822Z,101008.97
2024-01-21T22:28:40.377Z,101013.31
2024-01-21T22:31:09.431Z,100984.97
2024-01-21T22:33:36.684Z,100967.31
2024-01-21T22:36:09.008Z,100976.03
2024-01-21T22:38:35.846Z,100944.13
2024-01-21T22:41:02.710Z,100934.56
2024-01-21T22:43:29.537Z,100933.59
2024-01-21T22:45:56.097Z,100901.19
2024-01-21T22:48:22.958Z,100873.53
2024-01-21T22:50:49.862Z,100893.91
2024-01-21T22:53:16.894Z,100895.63
2024-01-21T22:55:43.412Z,100877.44
2024-01-21T22:58:11.330Z,100872.94
2024-01-21T23:00:39.509Z,100857.13
2024-01-21T23:03:06.357Z,100868.56
2024-01-21T23:05:33.000Z,100861.03
2024-01-21T23:07:59.509Z,100854.03
2024-01-21T23:10:25.991Z,100863.59
2024-01-21T23:12:52.894Z,100819.09
2024-01-21T23:15:19.587Z,100818.25
2024-01-21T23:17:46.773Z,100819.69
2024-01-21T23:20:13.464Z,100814.69
2024-01-21T23:22:39.986Z,100810.91
2024-01-21T23:25:07.164Z,100798.91
2024-01-21T23:27:36.869Z,100792.56
2024-01-21T23:30:04.802Z,100771.41
2024-01-21T23:32:31.458Z,100784.38
2024-01-21T23:34:58.109Z,100770.09
2024-01-21T23:37:24.788Z,100792.22
2024-01-21T23:39:52.365Z,100767.91
2024-01-21T23:42:18.928Z,100760.34
2024-01-21T23:44:45.499Z,100755.78
2024-01-21T23:47:12.620Z,100748.09
2024-01-21T23:49:44.715Z,100746.34
2024-01-21T23:52:11.775Z,100725.06
2024-01-21T23:54:43.622Z,100718.72
2024-01-21T23:57:10.654Z,100724.34
2024-01-21T23:59:39.657Z,100711.09
